createdAt,value
2018-03-26T00:02:34.897Z,73.64
2018-03-26T00:05:03.937Z,73.19
2018-03-26T00:07:35.019Z,75.48
2018-03-26T00:10:05.011Z,73.72
2018-03-26T00:12:35.972Z,75.08
2018-03-26T00:15:05.422Z,78.22
2018-03-26T00:17:36.860Z,77.00
2018-03-26T00:20:06.096Z,75.71
2018-03-26T00:22:46.256Z,75.58
2018-03-26T00:25:15.318Z,76.91
2018-03-26T00:27:44.485Z,74.49
2018-03-26T00:30:13.530Z,76.38
2018-03-26T00:32:47.594Z,75.27
2018-03-26T00:35:17.543Z,74.97
2018-03-26T00:37:46.588Z,74.86
2018-03-26T00:40:16.608Z,76.05
2018-03-26T00:42:47.897Z,77.67
2018-03-26T00:45:17.027Z,77.14
2018-03-26T00:47:46.273Z,75.63
2018-03-26T00:50:15.370Z,77.50
2018-03-26T00:52:44.472Z,75.86
2018-03-26T00:55:23.499Z,75.49
2018-03-26T00:57:52.742Z,75.61
2018-03-26T01:00:23.793Z,76.66
2018-03-26T01:02:52.851Z,74.53
2018-03-26T01:05:23.907Z,76.35
2018-03-26T01:08:06.551Z,76.80
2018-03-26T01:13:26.933Z,76.58
2018-03-26T01:16:10.938Z,76.79
2018-03-26T01:18:40.672Z,75.51
2018-03-26T01:21:13.956Z,74.47
2018-03-26T01:23:43.288Z,74.32
2018-03-26T01:26:15.819Z,73.99
2018-03-26T01:28:44.875Z,75.98
2018-03-26T01:31:13.921Z,77.42
2018-03-26T01:33:43.054Z,77.35
2018-03-26T01:36:12.119Z,78.23
2018-03-26T01:38:41.158Z,76.77
2018-03-26T01:41:20.406Z,76.98
2018-03-26T01:43:50.534Z,76.08
2018-03-26T01:46:19.587Z,77.76
2018-03-26T01:48:48.649Z,78.40
2018-03-26T01:51:17.784Z,76.78
2018-03-26T01:53:46.807Z,78.44
2018-03-26T01:56:15.875Z,79.77
2018-03-26T01:58:45.040Z,77.82
2018-03-26T02:01:16.107Z,79.71
2018-03-26T02:03:45.154Z,77.91
2018-03-26T02:08:49.245Z,77.58
2018-03-26T02:11:33.901Z,81.09
2018-03-26T02:14:02.985Z,80.45
2018-03-26T02:16:32.013Z,79.68
2018-03-26T02:19:01.055Z,78.79
2018-03-26T02:21:44.395Z,80.82
2018-03-26T02:24:15.372Z,78.28
2018-03-26T02:26:44.456Z,78.02
2018-03-26T02:29:21.351Z,79.44
2018-03-26T02:31:50.387Z,79.41
2018-03-26T02:34:36.848Z,78.05
2018-03-26T02:37:07.884Z,80.29
2018-03-26T02:39:42.370Z,80.56
2018-03-26T02:42:11.423Z,81.12
2018-03-26T02:44:42.443Z,83.03
2018-03-26T02:47:29.108Z,80.98
2018-03-26T02:49:58.145Z,80.52
2018-03-26T02:52:31.610Z,81.42
2018-03-26T02:55:00.659Z,81.36
2018-03-26T02:57:37.316Z,80.96
2018-03-26T03:00:21.931Z,80.30
2018-03-26T03:02:50.989Z,80.71
2018-03-26T03:05:23.131Z,79.79
2018-03-26T03:07:53.078Z,80.63
2018-03-26T03:10:39.445Z,81.07
2018-03-26T03:15:48.636Z,77.77
2018-03-26T03:18:17.695Z,78.54
2018-03-26T03:20:46.795Z,77.77
2018-03-26T03:23:15.855Z,78.72
2018-03-26T03:25:44.902Z,79.42
2018-03-26T03:28:14.340Z,79.29
2018-03-26T03:30:43.422Z,76.41
2018-03-26T03:33:12.438Z,78.17
2018-03-26T03:35:41.503Z,78.56
2018-03-26T03:38:10.705Z,78.92
2018-03-26T03:40:39.752Z,79.55
2018-03-26T03:43:08.805Z,79.37
2018-03-26T03:45:37.951Z,79.91
2018-03-26T03:48:07.048Z,77.63
2018-03-26T03:53:11.326Z,77.47
2018-03-26T03:55:40.393Z,79.87
2018-03-26T03:58:09.435Z,80.06
2018-03-26T04:00:38.533Z,79.10
2018-03-26T04:03:07.583Z,78.69
2018-03-26T04:05:37.562Z,79.41
2018-03-26T04:08:06.614Z,80.92
2018-03-26T04:10:35.843Z,78.35
2018-03-26T04:13:06.041Z,78.75
2018-03-26T04:15:35.085Z,79.53
2018-03-26T04:18:04.123Z,80.10
2018-03-26T04:20:33.195Z,82.37
2018-03-26T04:23:05.834Z,82.11
2018-03-26T04:25:45.925Z,81.70
2018-03-26T04:28:14.962Z,81.69
2018-03-26T04:30:44.007Z,82.37
2018-03-26T04:33:13.196Z,80.33
2018-03-26T04:35:42.299Z,82.15
2018-03-26T04:38:11.303Z,84.04
2018-03-26T04:40:40.354Z,80.62
2018-03-26T04:43:09.454Z,80.76
2018-03-26T04:45:38.759Z,82.58
2018-03-26T04:48:07.803Z,82.43
2018-03-26T04:50:36.911Z,80.81
2018-03-26T04:53:05.927Z,80.44
2018-03-26T04:55:34.983Z,79.36
2018-03-26T04:58:04.043Z,82.84
2018-03-26T05:00:33.083Z,81.61
2018-03-26T05:03:02.516Z,81.03
2018-03-26T05:05:31.574Z,82.84
2018-03-26T05:08:00.610Z,81.63
2018-03-26T05:10:29.815Z,83.68
2018-03-26T05:12:58.863Z,82.46
2018-03-26T05:15:27.913Z,83.72
2018-03-26T05:17:56.960Z,83.19
2018-03-26T05:20:26.015Z,83.45
2018-03-26T05:22:55.084Z,81.84
2018-03-26T05:25:24.231Z,82.41
2018-03-26T05:27:53.279Z,80.22
2018-03-26T05:30:22.452Z,80.40
2018-03-26T05:32:51.711Z,80.54
2018-03-26T05:35:20.761Z,80.89
2018-03-26T05:37:49.903Z,81.53
2018-03-26T05:40:19.108Z,80.58
2018-03-26T05:42:48.167Z,80.22
2018-03-26T05:47:53.590Z,79.92
2018-03-26T05:50:22.919Z,79.40
2018-03-26T05:52:51.972Z,79.69
2018-03-26T05:55:21.028Z,79.27
2018-03-26T05:57:50.254Z,80.01
2018-03-26T06:00:19.375Z,78.83
2018-03-26T06:02:51.533Z,79.21
2018-03-26T06:05:21.495Z,79.38
2018-03-26T06:07:50.784Z,80.16
2018-03-26T06:10:19.832Z,79.72
2018-03-26T06:12:48.866Z,79.67
2018-03-26T06:17:54.265Z,78.84
2018-03-26T06:22:58.614Z,79.46
2018-03-26T06:25:36.399Z,79.14
2018-03-26T06:28:05.747Z,79.08
2018-03-26T06:30:50.352Z,79.58
2018-03-26T06:33:20.347Z,78.16
2018-03-26T06:35:50.306Z,77.82
2018-03-26T06:38:23.182Z,78.00
2018-03-26T06:40:52.291Z,77.88
2018-03-26T06:43:22.290Z,77.42
2018-03-26T06:45:51.892Z,75.85
2018-03-26T06:48:25.959Z,75.11
2018-03-26T06:50:55.271Z,76.41
2018-03-26T06:53:24.307Z,77.33
2018-03-26T06:55:53.804Z,76.88
2018-03-26T06:58:22.842Z,76.27
2018-03-26T07:03:29.088Z,75.13
2018-03-26T07:05:58.395Z,74.35
2018-03-26T07:08:28.493Z,72.40
2018-03-26T07:10:57.715Z,71.98
2018-03-26T07:13:29.393Z,71.89
2018-03-26T07:16:00.711Z,72.04
2018-03-26T07:18:30.848Z,71.95
2018-03-26T07:21:02.638Z,71.99
2018-03-26T07:23:38.867Z,71.75
2018-03-26T07:26:07.947Z,72.00
2018-03-26T07:28:37.243Z,71.70
2018-03-26T07:31:07.040Z,69.86
2018-03-26T07:33:36.893Z,70.08
2018-03-26T07:36:05.938Z,70.29
2018-03-26T07:38:35.923Z,70.33
2018-03-26T07:41:07.029Z,70.34
2018-03-26T07:43:37.561Z,69.20
2018-03-26T07:46:06.595Z,70.30
2018-03-26T07:48:36.218Z,69.81
2018-03-26T07:51:05.278Z,68.14
2018-03-26T07:53:35.339Z,68.35
2018-03-26T07:56:04.387Z,68.05
2018-03-26T07:58:33.793Z,67.71
2018-03-26T08:01:06.756Z,66.40
2018-03-26T08:06:11.360Z,67.55
2018-03-26T08:08:48.606Z,67.87
2018-03-26T08:11:17.678Z,68.21
2018-03-26T08:13:47.639Z,66.95
2018-03-26T08:16:16.688Z,67.57
2018-03-26T08:21:21.047Z,66.12
2018-03-26T08:24:01.973Z,66.20
2018-03-26T08:26:31.025Z,65.84
2018-03-26T08:31:35.257Z,64.95
2018-03-26T08:36:39.614Z,65.07
2018-03-26T08:39:09.446Z,65.51
2018-03-26T08:41:39.504Z,64.19
2018-03-26T08:44:11.655Z,65.03
2018-03-26T08:46:40.715Z,65.23
2018-03-26T08:49:10.679Z,65.58
2018-03-26T08:51:40.790Z,65.01
2018-03-26T08:54:09.823Z,64.71
2018-03-26T08:56:40.169Z,62.24
2018-03-26T09:01:44.678Z,62.00
2018-03-26T09:04:17.158Z,60.67
2018-03-26T09:06:46.213Z,59.58
2018-03-26T09:11:52.238Z,59.89
2018-03-26T09:14:27.496Z,57.10
2018-03-26T09:16:57.032Z,57.84
2018-03-26T09:19:27.688Z,58.84
2018-03-26T09:21:57.262Z,56.08
2018-03-26T09:24:29.522Z,55.70
2018-03-26T09:26:58.797Z,55.34
2018-03-26T09:29:29.650Z,55.70
2018-03-26T09:31:58.711Z,52.41
2018-03-26T09:34:29.100Z,54.58
2018-03-26T09:36:58.180Z,54.07
2018-03-26T09:39:28.695Z,52.58
2018-03-26T09:41:58.320Z,50.88
2018-03-26T09:44:28.855Z,49.17
2018-03-26T09:47:00.437Z,50.66
2018-03-26T09:49:29.475Z,50.76
2018-03-26T09:51:58.542Z,48.87
2018-03-26T09:54:28.471Z,48.62
2018-03-26T09:59:33.406Z,45.62
2018-03-26T10:02:02.479Z,43.77
2018-03-26T10:04:32.617Z,45.04
2018-03-26T10:07:01.759Z,45.26
2018-03-26T10:12:07.677Z,44.86
2018-03-26T10:14:36.720Z,45.39
2018-03-26T10:19:43.540Z,45.45
2018-03-26T10:24:49.347Z,42.34
2018-03-26T10:29:54.731Z,42.00
2018-03-26T10:32:25.351Z,43.28
2018-03-26T10:34:54.387Z,44.66
2018-03-26T10:37:25.017Z,45.41
2018-03-26T10:39:55.011Z,44.35
2018-03-26T10:44:59.506Z,44.75
2018-03-26T10:47:30.162Z,45.70
2018-03-26T10:50:00.191Z,46.44
2018-03-26T10:52:30.213Z,46.73
2018-03-26T10:55:00.263Z,45.33
2018-03-26T10:57:29.858Z,43.46
2018-03-26T11:02:34.166Z,45.06
2018-03-26T11:05:03.282Z,46.19
2018-03-26T11:07:32.299Z,47.58
2018-03-26T11:10:01.366Z,45.39
2018-03-26T11:12:30.729Z,43.51
2018-03-26T11:15:00.672Z,44.21
2018-03-26T11:17:33.189Z,43.83
2018-03-26T11:20:02.677Z,41.69
2018-03-26T11:22:32.415Z,43.32
2018-03-26T11:25:01.452Z,42.71
2018-03-26T11:27:31.090Z,42.92
2018-03-26T11:30:00.173Z,44.58
2018-03-26T11:32:30.142Z,44.51
2018-03-26T11:34:59.371Z,44.52
2018-03-26T11:37:29.374Z,45.77
2018-03-26T11:39:59.601Z,45.66
2018-03-26T11:42:28.648Z,44.89
2018-03-26T11:45:01.764Z,44.08
2018-03-26T11:47:30.840Z,44.95
2018-03-26T11:52:35.187Z,46.56
2018-03-26T11:57:39.742Z,49.18
2018-03-26T12:00:08.955Z,49.88
2018-03-26T12:02:38.015Z,50.16
2018-03-26T12:05:11.886Z,50.86
2018-03-26T12:07:41.291Z,52.58
2018-03-26T12:10:11.307Z,53.48
2018-03-26T12:12:40.386Z,54.74
2018-03-26T12:15:11.295Z,55.29
2018-03-26T12:17:40.341Z,54.69
2018-03-26T12:20:28.213Z,55.77
2018-03-26T12:23:13.224Z,55.18
2018-03-26T12:25:42.284Z,54.49
2018-03-26T12:33:22.832Z,58.26
2018-03-26T12:35:59.150Z,58.58
2018-03-26T12:41:03.456Z,64.13
2018-03-26T12:43:32.541Z,61.01
2018-03-26T12:46:19.695Z,61.16
2018-03-26T12:48:48.734Z,65.51
2018-03-26T12:54:07.364Z,62.58
2018-03-26T12:56:36.433Z,62.49
2018-03-26T13:01:58.503Z,65.19
2018-03-26T13:04:28.870Z,63.18
2018-03-26T13:06:59.820Z,62.26
2018-03-26T13:09:30.325Z,63.13
2018-03-26T13:11:59.666Z,64.06
2018-03-26T13:14:30.706Z,60.52
2018-03-26T13:16:59.756Z,61.04
2018-03-26T13:19:29.777Z,60.25
2018-03-26T13:22:00.743Z,61.01
2018-03-26T13:24:30.586Z,59.32
2018-03-26T13:26:59.899Z,58.76
2018-03-26T13:29:33.722Z,59.51
2018-03-26T13:32:02.778Z,59.50
2018-03-26T13:34:32.224Z,60.11
2018-03-26T13:37:01.288Z,60.09
2018-03-26T13:39:38.323Z,60.37
2018-03-26T13:42:07.367Z,59.19
2018-03-26T13:44:38.426Z,59.48
2018-03-26T13:47:10.953Z,60.34
2018-03-26T13:49:47.373Z,59.90
2018-03-26T13:52:18.707Z,60.61
2018-03-26T13:54:52.000Z,59.98
2018-03-26T13:59:58.637Z,59.87
2018-03-26T14:05:04.940Z,60.32
2018-03-26T14:07:36.699Z,59.26
2018-03-26T14:10:25.792Z,60.26
2018-03-26T14:13:14.235Z,59.75
2018-03-26T14:16:02.268Z,59.23
2018-03-26T14:23:48.070Z,58.78
2018-03-26T14:26:21.148Z,59.14
2018-03-26T14:28:55.308Z,58.85
2018-03-26T14:31:26.441Z,59.71
2018-03-26T14:33:59.353Z,60.08
2018-03-26T14:36:29.342Z,58.81
2018-03-26T14:38:58.879Z,59.40
2018-03-26T14:41:30.226Z,58.95
2018-03-26T14:43:59.257Z,59.16
2018-03-26T14:46:28.952Z,58.86
2018-03-26T14:49:03.714Z,58.87
2018-03-26T14:51:32.750Z,58.22
2018-03-26T14:54:02.195Z,56.85
2018-03-26T14:56:31.253Z,56.24
2018-03-26T14:59:00.299Z,56.36
2018-03-26T15:01:29.413Z,54.86
2018-03-26T15:04:02.594Z,53.01
2018-03-26T15:06:31.632Z,51.69
2018-03-26T15:09:01.175Z,49.90
2018-03-26T15:11:30.601Z,49.22
2018-03-26T15:14:02.628Z,49.24
2018-03-26T15:16:31.688Z,50.38
2018-03-26T15:21:37.518Z,51.01
2018-03-26T15:24:07.528Z,52.68
2018-03-26T15:26:37.159Z,52.91
2018-03-26T15:31:41.743Z,55.21
2018-03-26T15:34:13.944Z,56.00
2018-03-26T15:36:43.004Z,55.86
2018-03-26T15:39:13.328Z,56.87
2018-03-26T15:41:44.878Z,57.66
2018-03-26T15:44:13.912Z,57.98
2018-03-26T15:46:42.991Z,58.08
2018-03-26T15:51:53.021Z,57.55
2018-03-26T15:54:22.075Z,59.27
2018-03-26T15:56:51.675Z,61.60
2018-03-26T15:59:38.173Z,60.62
2018-03-26T16:02:10.477Z,61.58
2018-03-26T16:04:39.524Z,62.40
2018-03-26T16:07:12.463Z,65.26
2018-03-26T16:09:41.519Z,63.32
2018-03-26T16:12:18.650Z,63.87
2018-03-26T16:14:47.686Z,64.34
2018-03-26T16:17:17.210Z,67.28
2018-03-26T16:19:46.291Z,68.55
2018-03-26T16:22:16.262Z,64.92
2018-03-26T16:24:45.519Z,66.75
2018-03-26T16:27:14.575Z,68.56
2018-03-26T16:29:44.371Z,69.21
2018-03-26T16:32:13.569Z,69.90
2018-03-26T16:34:42.621Z,69.35
2018-03-26T16:39:48.315Z,68.22
2018-03-26T16:42:30.351Z,69.05
2018-03-26T16:44:59.543Z,69.65
2018-03-26T16:47:29.160Z,70.57
2018-03-26T16:49:58.187Z,70.73
2018-03-26T16:52:29.715Z,72.23
2018-03-26T16:55:02.412Z,70.67
2018-03-26T16:57:35.273Z,73.91
2018-03-26T17:00:08.638Z,73.02
2018-03-26T17:02:37.680Z,71.22
2018-03-26T17:05:07.871Z,73.42
2018-03-26T17:07:36.919Z,75.48
2018-03-26T17:10:08.992Z,75.94
2018-03-26T17:12:38.115Z,76.87
2018-03-26T17:15:07.422Z,77.76
2018-03-26T17:17:37.503Z,79.25
2018-03-26T17:20:06.583Z,81.58
2018-03-26T17:22:35.623Z,81.12
2018-03-26T17:25:05.004Z,81.25
2018-03-26T17:27:34.057Z,82.36
2018-03-26T17:30:04.339Z,81.70
2018-03-26T17:32:33.426Z,82.52
2018-03-26T17:35:02.474Z,82.95
2018-03-26T17:40:07.703Z,82.93
2018-03-26T17:42:37.748Z,81.79
2018-03-26T17:45:06.784Z,82.25
2018-03-26T17:47:35.831Z,82.57
2018-03-26T17:50:05.071Z,81.20
2018-03-26T17:55:10.824Z,81.95
2018-03-26T17:57:39.924Z,82.22
2018-03-26T18:00:08.941Z,81.39
2018-03-26T18:02:59.352Z,81.05
2018-03-26T18:08:04.643Z,79.83
2018-03-26T18:10:33.703Z,80.58
2018-03-26T18:13:02.840Z,80.12
2018-03-26T18:15:31.883Z,79.78
2018-03-26T18:18:00.932Z,80.79
2018-03-26T18:20:29.993Z,80.30
2018-03-26T18:22:59.953Z,81.73
2018-03-26T18:25:29.004Z,81.45
2018-03-26T18:27:58.115Z,80.36
2018-03-26T18:30:27.146Z,80.08
2018-03-26T18:32:56.228Z,81.30
2018-03-26T18:35:25.509Z,81.75
2018-03-26T18:37:54.560Z,82.31
2018-03-26T18:40:23.601Z,82.27
2018-03-26T18:42:52.808Z,81.16
2018-03-26T18:45:22.162Z,80.42
2018-03-26T18:47:54.566Z,81.69
2018-03-26T18:52:59.789Z,82.16
2018-03-26T18:55:43.534Z,82.03
2018-03-26T18:58:12.583Z,82.72
2018-03-26T19:00:41.666Z,83.19
2018-03-26T19:03:10.852Z,82.61
2018-03-26T19:05:43.973Z,83.39
2018-03-26T19:08:13.195Z,82.78
2018-03-26T19:10:42.306Z,83.03
2018-03-26T19:13:11.328Z,83.28
2018-03-26T19:15:42.391Z,82.93
2018-03-26T19:18:11.616Z,82.52
2018-03-26T19:20:40.674Z,82.39
2018-03-26T19:23:09.713Z,82.21
2018-03-26T19:25:49.404Z,83.69
2018-03-26T19:28:18.860Z,84.01
2018-03-26T19:30:55.182Z,84.75
2018-03-26T19:33:24.460Z,85.10
2018-03-26T19:38:29.747Z,86.49
2018-03-26T19:41:08.700Z,86.65
2018-03-26T19:43:37.780Z,87.75
2018-03-26T19:46:12.253Z,86.95
2018-03-26T19:48:41.294Z,87.27
2018-03-26T19:51:22.252Z,88.27
2018-03-26T19:53:51.304Z,88.85
2018-03-26T19:56:22.353Z,89.20
2018-03-26T19:58:56.875Z,88.51
2018-03-26T20:01:25.928Z,87.75
2018-03-26T20:04:00.488Z,88.72
2018-03-26T20:06:29.591Z,87.74
2018-03-26T20:09:07.194Z,89.01
2018-03-26T20:11:36.244Z,89.37
2018-03-26T20:14:05.443Z,89.43
2018-03-26T20:16:38.419Z,89.12
2018-03-26T20:19:08.354Z,88.37
2018-03-26T20:21:37.456Z,89.38
2018-03-26T20:25:54.975Z,89.05
2018-03-26T20:28:24.122Z,88.71
2018-03-26T20:30:53.153Z,88.70
2018-03-26T20:33:22.202Z,88.23
2018-03-26T20:35:51.380Z,87.85
2018-03-26T20:38:20.485Z,87.51
2018-03-26T20:40:52.662Z,87.70
2018-03-26T20:43:21.752Z,87.42
2018-03-26T20:45:50.812Z,87.13
2018-03-26T20:48:19.858Z,88.21
2018-03-26T20:50:48.920Z,87.20
2018-03-26T20:53:17.973Z,87.60
2018-03-26T20:55:47.284Z,87.67
2018-03-26T20:58:16.303Z,88.78
2018-03-26T21:00:45.355Z,89.57
2018-03-26T21:03:14.681Z,89.72
2018-03-26T21:05:43.708Z,90.02
2018-03-26T21:08:12.755Z,89.79
2018-03-26T21:10:42.415Z,89.93
2018-03-26T21:13:11.505Z,89.44
2018-03-26T21:18:17.041Z,89.95
2018-03-26T21:20:46.092Z,90.63
2018-03-26T21:23:15.134Z,91.28
2018-03-26T21:25:44.177Z,89.47
2018-03-26T21:28:13.530Z,89.35
2018-03-26T21:30:42.570Z,90.73
2018-03-26T21:33:12.519Z,91.19
2018-03-26T21:35:41.572Z,90.94
2018-03-26T21:38:10.624Z,91.48
2018-03-26T21:40:39.801Z,90.69
2018-03-26T21:43:08.856Z,91.39
2018-03-26T21:45:38.023Z,91.70
2018-03-26T21:48:07.075Z,92.26
2018-03-26T21:50:36.135Z,92.00
2018-03-26T21:53:08.254Z,92.07
2018-03-26T21:55:49.901Z,92.01
2018-03-26T21:58:20.307Z,91.61
2018-03-26T22:00:49.375Z,91.82
2018-03-26T22:05:22.556Z,92.13
2018-03-26T22:07:56.557Z,92.60
2018-03-26T22:10:25.596Z,92.68
2018-03-26T22:12:54.656Z,93.02
2018-03-26T22:15:23.691Z,93.51
2018-03-26T22:17:57.676Z,93.00
2018-03-26T22:20:26.774Z,93.19
2018-03-26T22:22:55.947Z,93.03
2018-03-26T22:25:25.000Z,92.98
2018-03-26T22:28:11.036Z,92.38
2018-03-26T22:30:47.641Z,92.21
2018-03-26T22:33:16.701Z,91.94
2018-03-26T22:35:47.744Z,91.42
2018-03-26T22:38:16.999Z,91.26
2018-03-26T22:40:48.159Z,91.06
2018-03-26T22:43:17.207Z,91.26
2018-03-26T22:45:46.310Z,91.20
2018-03-26T22:48:15.332Z,90.65
2018-03-26T22:53:21.560Z,90.66
2018-03-26T22:55:57.856Z,90.00
2018-03-26T22:58:27.819Z,91.24
2018-03-26T23:01:11.235Z,91.02
2018-03-26T23:06:15.425Z,91.22
2018-03-26T23:08:44.841Z,90.74
2018-03-26T23:11:13.958Z,91.14
2018-03-26T23:13:57.852Z,91.80
2018-03-26T23:16:26.883Z,91.90
2018-03-26T23:19:11.581Z,91.24
2018-03-26T23:21:47.644Z,90.65
2018-03-26T23:24:16.763Z,90.06
2018-03-26T23:26:53.366Z,89.83
2018-03-26T23:29:22.440Z,90.39
2018-03-26T23:31:55.190Z,90.51
2018-03-26T23:34:24.320Z,90.62
2018-03-26T23:37:10.773Z,89.88
2018-03-26T23:39:39.829Z,90.84
2018-03-26T23:42:09.837Z,91.49
2018-03-26T23:47:17.034Z,91.12
2018-03-26T23:49:46.086Z,91.67
2018-03-26T23:52:15.120Z,92.06
2018-03-26T23:54:44.411Z,90.81
2018-03-26T23:57:13.447Z,90.19
2018-03-26T23:59:42.503Z,89.70
